sensor_id;sensor_type;location;lat;lon;timestamp;P1;durP1;ratioP1;P2;durP2;ratioP2
68910;SDS011;55953;51.650;-0.522;2024-03-08T00:00:15;49.00;;;22.00;;
68910;SDS011;55953;51.650;-0.522;2024-03-08T00:03:06;47.50;;;22.10;;
68910;SDS011;55953;51.650;-0.522;2024-03-08T00:05:34;43.70;;;21.00;;
68910;SDS011;55953;51.650;-0.522;2024-03-08T00:08:03;47.80;;;22.00;;
68910;SDS011;55953;51.650;-0.522;2024-03-08T00:10:32;50.60;;;23.30;;
68910;SDS011;55953;51.650;-0.522;2024-03-08T00:13:00;43.20;;;21.30;;
68910;SDS011;55953;51.650;-0.522;2024-03-08T00:15:31;49.50;;;22.40;;
68910;SDS011;55953;51.650;-0.522;2024-03-08T00:18:00;47.60;;;24.20;;
68910;SDS011;55953;51.650;-0.522;2024-03-08T00:20:27;48.50;;;23.40;;
68910;SDS011;55953;51.650;-0.522;2024-03-08T00:22:55;50.10;;;23.80;;
68910;SDS011;55953;51.650;-0.522;2024-03-08T00:25:25;50.40;;;23.80;;
68910;SDS011;55953;51.650;-0.522;2024-03-08T00:27:53;49.50;;;23.30;;
68910;SDS011;55953;51.650;-0.522;2024-03-08T00:30:23;50.00;;;23.30;;
68910;SDS011;55953;51.650;-0.522;2024-03-08T00:32:53;49.80;;;23.00;;
68910;SDS011;55953;51.650;-0.522;2024-03-08T00:35:21;53.10;;;23.30;;
68910;SDS011;55953;51.650;-0.522;2024-03-08T00:37:50;45.80;;;23.40;;
68910;SDS011;55953;51.650;-0.522;2024-03-08T00:40:18;46.50;;;23.00;;
68910;SDS011;55953;51.650;-0.522;2024-03-08T00:42:46;50.20;;;23.50;;
68910;SDS011;55953;51.650;-0.522;2024-03-08T00:45:14;50.10;;;23.90;;
68910;SDS011;55953;51.650;-0.522;2024-03-08T00:47:42;50.70;;;23.60;;
68910;SDS011;55953;51.650;-0.522;2024-03-08T00:50:12;49.60;;;23.60;;
68910;SDS011;55953;51.650;-0.522;2024-03-08T00:52:40;51.40;;;22.90;;
68910;SDS011;55953;51.650;-0.522;2024-03-08T00:55:08;50.60;;;23.90;;
68910;SDS011;55953;51.650;-0.522;2024-03-08T00:57:38;54.80;;;25.00;;
68910;SDS011;55953;51.650;-0.522;2024-03-08T01:00:07;48.40;;;23.20;;
68910;SDS011;55953;51.650;-0.522;2024-03-08T01:02:39;47.20;;;23.60;;
68910;SDS011;55953;51.650;-0.522;2024-03-08T01:05:08;55.10;;;24.50;;
68910;SDS011;55953;51.650;-0.522;2024-03-08T01:07:36;53.10;;;22.00;;
68910;SDS011;55953;51.650;-0.522;2024-03-08T01:10:05;48.20;;;23.80;;
68910;SDS011;55953;51.650;-0.522;2024-03-08T01:12:39;53.10;;;24.50;;
68910;SDS011;55953;51.650;-0.522;2024-03-08T01:15:09;55.50;;;26.20;;
68910;SDS011;55953;51.650;-0.522;2024-03-08T01:17:38;53.40;;;24.60;;
68910;SDS011;55953;51.650;-0.522;2024-03-08T01:20:07;52.70;;;24.50;;
68910;SDS011;55953;51.650;-0.522;2024-03-08T01:22:39;55.00;;;24.80;;
68910;SDS011;55953;51.650;-0.522;2024-03-08T01:25:08;49.80;;;24.30;;
68910;SDS011;55953;51.650;-0.522;2024-03-08T01:27:36;52.20;;;23.50;;
68910;SDS011;55953;51.650;-0.522;2024-03-08T01:30:05;51.50;;;22.80;;
68910;SDS011;55953;51.650;-0.522;2024-03-08T01:32:33;53.40;;;25.20;;
68910;SDS011;55953;51.650;-0.522;2024-03-08T01:35:01;52.90;;;25.00;;
68910;SDS011;55953;51.650;-0.522;2024-03-08T01:37:31;46.70;;;24.20;;
68910;SDS011;55953;51.650;-0.522;2024-03-08T01:39:58;53.30;;;23.70;;
68910;SDS011;55953;51.650;-0.522;2024-03-08T01:42:26;54.10;;;23.70;;
68910;SDS011;55953;51.650;-0.522;2024-03-08T01:44:55;53.60;;;25.60;;
68910;SDS011;55953;51.650;-0.522;2024-03-08T01:47:23;51.40;;;25.60;;
68910;SDS011;55953;51.650;-0.522;2024-03-08T01:49:51;50.60;;;24.40;;
68910;SDS011;55953;51.650;-0.522;2024-03-08T01:52:20;53.80;;;25.10;;
68910;SDS011;55953;51.650;-0.522;2024-03-08T01:54:50;50.70;;;23.80;;
68910;SDS011;55953;51.650;-0.522;2024-03-08T01:57:19;55.90;;;25.60;;
68910;SDS011;55953;51.650;-0.522;2024-03-08T01:59:47;60.00;;;25.40;;
68910;SDS011;55953;51.650;-0.522;2024-03-08T02:02:17;49.10;;;23.90;;
68910;SDS011;55953;51.650;-0.522;2024-03-08T02:04:48;48.90;;;23.40;;
68910;SDS011;55953;51.650;-0.522;2024-03-08T02:07:16;47.70;;;23.90;;
68910;SDS011;55953;51.650;-0.522;2024-03-08T02:09:44;53.90;;;25.70;;
68910;SDS011;55953;51.650;-0.522;2024-03-08T02:12:12;51.60;;;24.50;;
68910;SDS011;55953;51.650;-0.522;2024-03-08T02:14:41;52.50;;;25.40;;
68910;SDS011;55953;51.650;-0.522;2024-03-08T02:17:11;51.80;;;25.00;;
68910;SDS011;55953;51.650;-0.522;2024-03-08T02:19:39;48.80;;;24.20;;
68910;SDS011;55953;51.650;-0.522;2024-03-08T02:22:07;50.80;;;23.90;;
68910;SDS011;55953;51.650;-0.522;2024-03-08T02:24:35;48.00;;;22.40;;
68910;SDS011;55953;51.650;-0.522;2024-03-08T02:27:04;45.40;;;23.40;;
68910;SDS011;55953;51.650;-0.522;2024-03-08T02:29:33;50.00;;;23.50;;
68910;SDS011;55953;51.650;-0.522;2024-03-08T02:32:02;51.30;;;22.70;;
68910;SDS011;55953;51.650;-0.522;2024-03-08T02:34:31;48.10;;;23.10;;
68910;SDS011;55953;51.650;-0.522;2024-03-08T02:36:59;44.60;;;22.00;;
68910;SDS011;55953;51.650;-0.522;2024-03-08T02:39:27;52.40;;;24.00;;
68910;SDS011;55953;51.650;-0.522;2024-03-08T02:41:55;46.10;;;22.10;;
68910;SDS011;55953;51.650;-0.522;2024-03-08T02:44:23;46.40;;;23.00;;
68910;SDS011;55953;51.650;-0.522;2024-03-08T02:46:51;47.70;;;22.50;;
68910;SDS011;55953;51.650;-0.522;2024-03-08T02:49:23;45.10;;;22.00;;
68910;SDS011;55953;51.650;-0.522;2024-03-08T02:51:51;44.50;;;22.90;;
68910;SDS011;55953;51.650;-0.522;2024-03-08T02:54:19;46.50;;;22.40;;
68910;SDS011;55953;51.650;-0.522;2024-03-08T02:56:48;46.40;;;21.30;;
68910;SDS011;55953;51.650;-0.522;2024-03-08T02:59:18;45.90;;;21.60;;
68910;SDS011;55953;51.650;-0.522;2024-03-08T03:01:46;46.10;;;21.30;;
68910;SDS011;55953;51.650;-0.522;2024-03-08T03:04:14;47.70;;;21.70;;
68910;SDS011;55953;51.650;-0.522;2024-03-08T03:06:42;45.00;;;21.70;;
68910;SDS011;55953;51.650;-0.522;2024-03-08T03:09:10;50.50;;;23.00;;
68910;SDS011;55953;51.650;-0.522;2024-03-08T03:11:38;48.30;;;22.80;;
68910;SDS011;55953;51.650;-0.522;2024-03-08T03:14:06;45.30;;;21.10;;
68910;SDS011;55953;51.650;-0.522;2024-03-08T03:16:36;48.10;;;21.80;;
68910;SDS011;55953;51.650;-0.522;2024-03-08T03:19:04;49.60;;;21.90;;
68910;SDS011;55953;51.650;-0.522;2024-03-08T03:21:33;44.50;;;21.40;;
68910;SDS011;55953;51.650;-0.522;2024-03-08T03:24:04;50.20;;;23.80;;
68910;SDS011;55953;51.650;-0.522;2024-03-08T03:26:38;48.00;;;22.20;;
68910;SDS011;55953;51.650;-0.522;2024-03-08T03:29:07;42.00;;;21.00;;
68910;SDS011;55953;51.650;-0.522;2024-03-08T03:31:36;42.50;;;20.90;;
68910;SDS011;55953;51.650;-0.522;2024-03-08T03:34:04;48.60;;;22.30;;
68910;SDS011;55953;51.650;-0.522;2024-03-08T03:36:36;45.70;;;21.80;;
68910;SDS011;55953;51.650;-0.522;2024-03-08T03:39:06;44.00;;;20.00;;
68910;SDS011;55953;51.650;-0.522;2024-03-08T03:41:48;45.70;;;21.80;;
68910;SDS011;55953;51.650;-0.522;2024-03-08T03:44:19;44.20;;;21.40;;
68910;SDS011;55953;51.650;-0.522;2024-03-08T03:46:47;45.80;;;21.80;;
68910;SDS011;55953;51.650;-0.522;2024-03-08T03:49:15;46.00;;;21.60;;
68910;SDS011;55953;51.650;-0.522;2024-03-08T03:51:44;45.80;;;22.20;;
68910;SDS011;55953;51.650;-0.522;2024-03-08T03:54:13;47.70;;;21.50;;
68910;SDS011;55953;51.650;-0.522;2024-03-08T03:56:41;44.00;;;20.00;;
68910;SDS011;55953;51.650;-0.522;2024-03-08T03:59:09;45.30;;;21.90;;
68910;SDS011;55953;51.650;-0.522;2024-03-08T04:01:42;42.80;;;21.50;;
68910;SDS011;55953;51.650;-0.522;2024-03-08T04:04:11;40.20;;;20.20;;
68910;SDS011;55953;51.650;-0.522;2024-03-08T04:06:40;47.20;;;21.00;;
68910;SDS011;55953;51.650;-0.522;2024-03-08T04:09:08;51.00;;;20.30;;
68910;SDS011;55953;51.650;-0.522;2024-03-08T04:11:35;42.00;;;20.20;;
68910;SDS011;55953;51.650;-0.522;2024-03-08T04:14:04;45.40;;;21.20;;
68910;SDS011;55953;51.650;-0.522;2024-03-08T04:16:32;44.00;;;21.30;;
68910;SDS011;55953;51.650;-0.522;2024-03-08T04:19:00;49.80;;;21.70;;
68910;SDS011;55953;51.650;-0.522;2024-03-08T04:23:59;50.30;;;20.70;;
68910;SDS011;55953;51.650;-0.522;2024-03-08T04:26:27;42.20;;;21.20;;
68910;SDS011;55953;51.650;-0.522;2024-03-08T04:28:55;41.30;;;19.70;;
68910;SDS011;55953;51.650;-0.522;2024-03-08T04:31:23;42.60;;;21.50;;
68910;SDS011;55953;51.650;-0.522;2024-03-08T04:33:51;42.00;;;20.30;;
68910;SDS011;55953;51.650;-0.522;2024-03-08T04:36:19;46.30;;;21.30;;
68910;SDS011;55953;51.650;-0.522;2024-03-08T04:38:48;44.80;;;21.90;;
68910;SDS011;55953;51.650;-0.522;2024-03-08T04:41:17;44.80;;;20.60;;
68910;SDS011;55953;51.650;-0.522;2024-03-08T04:43:46;45.80;;;20.90;;
68910;SDS011;55953;51.650;-0.522;2024-03-08T04:46:14;45.30;;;20.70;;
68910;SDS011;55953;51.650;-0.522;2024-03-08T04:48:42;48.50;;;21.30;;
68910;SDS011;55953;51.650;-0.522;2024-03-08T04:51:11;44.30;;;20.30;;
68910;SDS011;55953;51.650;-0.522;2024-03-08T04:53:39;46.70;;;21.20;;
68910;SDS011;55953;51.650;-0.522;2024-03-08T04:56:07;46.50;;;21.20;;
68910;SDS011;55953;51.650;-0.522;2024-03-08T04:58:35;51.10;;;21.50;;
68910;SDS011;55953;51.650;-0.522;2024-03-08T05:01:03;47.40;;;21.10;;
68910;SDS011;55953;51.650;-0.522;2024-03-08T05:03:32;44.80;;;21.80;;
68910;SDS011;55953;51.650;-0.522;2024-03-08T05:06:00;50.70;;;22.40;;
68910;SDS011;55953;51.650;-0.522;2024-03-08T05:08:28;48.30;;;21.10;;
68910;SDS011;55953;51.650;-0.522;2024-03-08T05:10:56;45.30;;;20.00;;
68910;SDS011;55953;51.650;-0.522;2024-03-08T05:13:24;47.90;;;20.70;;
68910;SDS011;55953;51.650;-0.522;2024-03-08T05:15:52;48.90;;;21.60;;
68910;SDS011;55953;51.650;-0.522;2024-03-08T05:18:20;46.60;;;21.00;;
68910;SDS011;55953;51.650;-0.522;2024-03-08T05:20:49;45.50;;;22.20;;
68910;SDS011;55953;51.650;-0.522;2024-03-08T05:23:18;45.50;;;21.10;;
68910;SDS011;55953;51.650;-0.522;2024-03-08T05:25:47;46.60;;;21.20;;
68910;SDS011;55953;51.650;-0.522;2024-03-08T05:28:14;47.40;;;22.60;;
68910;SDS011;55953;51.650;-0.522;2024-03-08T05:30:42;51.50;;;21.20;;
68910;SDS011;55953;51.650;-0.522;2024-03-08T05:33:10;49.30;;;22.60;;
68910;SDS011;55953;51.650;-0.522;2024-03-08T05:35:39;47.00;;;20.50;;
68910;SDS011;55953;51.650;-0.522;2024-03-08T05:38:07;46.40;;;23.10;;
68910;SDS011;55953;51.650;-0.522;2024-03-08T05:40:35;46.20;;;21.60;;
68910;SDS011;55953;51.650;-0.522;2024-03-08T05:43:03;48.30;;;20.90;;
68910;SDS011;55953;51.650;-0.522;2024-03-08T05:45:31;47.50;;;22.10;;
68910;SDS011;55953;51.650;-0.522;2024-03-08T05:47:59;52.10;;;23.00;;
68910;SDS011;55953;51.650;-0.522;2024-03-08T05:50:27;49.90;;;22.60;;
68910;SDS011;55953;51.650;-0.522;2024-03-08T05:52:55;57.30;;;24.30;;
68910;SDS011;55953;51.650;-0.522;2024-03-08T05:55:23;49.20;;;22.40;;
68910;SDS011;55953;51.650;-0.522;2024-03-08T05:57:52;48.70;;;22.70;;
68910;SDS011;55953;51.650;-0.522;2024-03-08T06:00:21;46.90;;;22.30;;
68910;SDS011;55953;51.650;-0.522;2024-03-08T06:02:50;49.70;;;22.80;;
68910;SDS011;55953;51.650;-0.522;2024-03-08T06:05:19;47.40;;;22.60;;
68910;SDS011;55953;51.650;-0.522;2024-03-08T06:07:47;47.50;;;20.50;;
68910;SDS011;55953;51.650;-0.522;2024-03-08T06:10:15;49.00;;;22.70;;
68910;SDS011;55953;51.650;-0.522;2024-03-08T06:12:45;49.80;;;21.50;;
68910;SDS011;55953;51.650;-0.522;2024-03-08T06:15:13;53.20;;;23.60;;
68910;SDS011;55953;51.650;-0.522;2024-03-08T06:17:44;44.40;;;22.80;;
68910;SDS011;55953;51.650;-0.522;2024-03-08T06:20:12;49.20;;;21.50;;
68910;SDS011;55953;51.650;-0.522;2024-03-08T06:22:42;47.10;;;21.90;;
68910;SDS011;55953;51.650;-0.522;2024-03-08T06:25:11;45.50;;;21.30;;
68910;SDS011;55953;51.650;-0.522;2024-03-08T06:27:43;47.20;;;22.00;;
68910;SDS011;55953;51.650;-0.522;2024-03-08T06:30:11;48.40;;;23.80;;
68910;SDS011;55953;51.650;-0.522;2024-03-08T06:32:40;47.70;;;23.10;;
68910;SDS011;55953;51.650;-0.522;2024-03-08T06:35:10;46.00;;;21.60;;
68910;SDS011;55953;51.650;-0.522;2024-03-08T06:37:39;50.50;;;23.10;;
68910;SDS011;55953;51.650;-0.522;2024-03-08T06:40:07;47.90;;;21.40;;
68910;SDS011;55953;51.650;-0.522;2024-03-08T06:42:37;48.70;;;22.20;;
68910;SDS011;55953;51.650;-0.522;2024-03-08T06:45:05;46.90;;;21.70;;
68910;SDS011;55953;51.650;-0.522;2024-03-08T06:47:36;48.80;;;21.60;;
68910;SDS011;55953;51.650;-0.522;2024-03-08T06:50:05;51.70;;;23.10;;
68910;SDS011;55953;51.650;-0.522;2024-03-08T06:52:33;48.60;;;22.00;;
68910;SDS011;55953;51.650;-0.522;2024-03-08T06:55:02;51.00;;;22.70;;
68910;SDS011;55953;51.650;-0.522;2024-03-08T06:57:32;48.10;;;21.20;;
68910;SDS011;55953;51.650;-0.522;2024-03-08T07:00:01;46.60;;;19.70;;
68910;SDS011;55953;51.650;-0.522;2024-03-08T07:02:29;45.70;;;21.40;;
68910;SDS011;55953;51.650;-0.522;2024-03-08T07:04:57;47.10;;;22.00;;
68910;SDS011;55953;51.650;-0.522;2024-03-08T07:07:25;55.90;;;22.60;;
68910;SDS011;55953;51.650;-0.522;2024-03-08T07:09:54;51.70;;;21.30;;
68910;SDS011;55953;51.650;-0.522;2024-03-08T07:12:24;51.80;;;21.50;;
68910;SDS011;55953;51.650;-0.522;2024-03-08T07:14:53;46.90;;;20.40;;
68910;SDS011;55953;51.650;-0.522;2024-03-08T07:17:21;48.30;;;21.30;;
68910;SDS011;55953;51.650;-0.522;2024-03-08T07:19:50;46.80;;;21.40;;
68910;SDS011;55953;51.650;-0.522;2024-03-08T07:22:18;44.70;;;22.10;;
68910;SDS011;55953;51.650;-0.522;2024-03-08T07:24:46;46.10;;;21.20;;
68910;SDS011;55953;51.650;-0.522;2024-03-08T07:27:38;44.60;;;20.90;;
68910;SDS011;55953;51.650;-0.522;2024-03-08T07:30:06;49.20;;;21.30;;
68910;SDS011;55953;51.650;-0.522;2024-03-08T07:32:37;46.60;;;21.00;;
68910;SDS011;55953;51.650;-0.522;2024-03-08T07:35:06;46.80;;;21.80;;
68910;SDS011;55953;51.650;-0.522;2024-03-08T07:37:34;50.60;;;22.10;;
68910;SDS011;55953;51.650;-0.522;2024-03-08T07:40:02;45.70;;;20.40;;
68910;SDS011;55953;51.650;-0.522;2024-03-08T07:42:30;52.40;;;21.20;;
68910;SDS011;55953;51.650;-0.522;2024-03-08T07:44:58;52.00;;;22.20;;
68910;SDS011;55953;51.650;-0.522;2024-03-08T07:47:27;47.60;;;21.00;;
68910;SDS011;55953;51.650;-0.522;2024-03-08T07:49:55;48.40;;;22.00;;
68910;SDS011;55953;51.650;-0.522;2024-03-08T07:52:25;47.60;;;20.00;;
68910;SDS011;55953;51.650;-0.522;2024-03-08T07:54:53;42.70;;;19.80;;
68910;SDS011;55953;51.650;-0.522;2024-03-08T07:57:22;46.40;;;21.00;;
68910;SDS011;55953;51.650;-0.522;2024-03-08T07:59:50;43.80;;;20.40;;
68910;SDS011;55953;51.650;-0.522;2024-03-08T08:02:18;50.00;;;21.50;;
68910;SDS011;55953;51.650;-0.522;2024-03-08T08:04:46;47.80;;;22.00;;
68910;SDS011;55953;51.650;-0.522;2024-03-08T08:07:14;47.60;;;21.10;;
68910;SDS011;55953;51.650;-0.522;2024-03-08T08:09:42;41.60;;;19.70;;
68910;SDS011;55953;51.650;-0.522;2024-03-08T08:12:10;44.60;;;21.60;;
68910;SDS011;55953;51.650;-0.522;2024-03-08T08:14:39;50.80;;;23.00;;
68910;SDS011;55953;51.650;-0.522;2024-03-08T08:17:08;42.80;;;19.40;;
68910;SDS011;55953;51.650;-0.522;2024-03-08T08:19:36;44.10;;;20.10;;
68910;SDS011;55953;51.650;-0.522;2024-03-08T08:22:06;43.20;;;20.70;;
68910;SDS011;55953;51.650;-0.522;2024-03-08T08:24:36;48.20;;;21.20;;
68910;SDS011;55953;51.650;-0.522;2024-03-08T08:27:04;43.90;;;20.00;;
68910;SDS011;55953;51.650;-0.522;2024-03-08T08:29:33;43.10;;;20.00;;
68910;SDS011;55953;51.650;-0.522;2024-03-08T08:32:00;45.90;;;20.60;;
68910;SDS011;55953;51.650;-0.522;2024-03-08T08:34:30;44.60;;;20.00;;
68910;SDS011;55953;51.650;-0.522;2024-03-08T08:36:59;46.00;;;21.10;;
68910;SDS011;55953;51.650;-0.522;2024-03-08T08:39:27;44.10;;;19.70;;
68910;SDS011;55953;51.650;-0.522;2024-03-08T08:41:55;45.10;;;20.90;;
68910;SDS011;55953;51.650;-0.522;2024-03-08T08:44:24;44.60;;;19.60;;
68910;SDS011;55953;51.650;-0.522;2024-03-08T08:46:53;40.70;;;20.90;;
68910;SDS011;55953;51.650;-0.522;2024-03-08T08:49:29;43.40;;;20.40;;
68910;SDS011;55953;51.650;-0.522;2024-03-08T08:51:58;40.40;;;19.90;;
68910;SDS011;55953;51.650;-0.522;2024-03-08T08:54:36;40.40;;;20.60;;
68910;SDS011;55953;51.650;-0.522;2024-03-08T08:57:04;38.20;;;19.10;;
68910;SDS011;55953;51.650;-0.522;2024-03-08T08:59:35;40.70;;;20.40;;
68910;SDS011;55953;51.650;-0.522;2024-03-08T09:02:09;38.40;;;19.10;;
68910;SDS011;55953;51.650;-0.522;2024-03-08T09:04:42;39.10;;;19.10;;
68910;SDS011;55953;51.650;-0.522;2024-03-08T09:07:11;41.60;;;19.80;;
68910;SDS011;55953;51.650;-0.522;2024-03-08T09:09:42;41.90;;;19.70;;
68910;SDS011;55953;51.650;-0.522;2024-03-08T09:12:11;40.00;;;19.20;;
68910;SDS011;55953;51.650;-0.522;2024-03-08T09:14:41;43.10;;;19.50;;
68910;SDS011;55953;51.650;-0.522;2024-03-08T09:17:09;39.90;;;20.60;;
68910;SDS011;55953;51.650;-0.522;2024-03-08T09:19:37;42.30;;;20.90;;
68910;SDS011;55953;51.650;-0.522;2024-03-08T09:22:05;40.80;;;19.70;;
68910;SDS011;55953;51.650;-0.522;2024-03-08T09:24:33;42.70;;;20.60;;
68910;SDS011;55953;51.650;-0.522;2024-03-08T09:27:01;40.00;;;20.40;;
68910;SDS011;55953;51.650;-0.522;2024-03-08T09:29:29;40.20;;;19.30;;
68910;SDS011;55953;51.650;-0.522;2024-03-08T09:31:57;39.90;;;20.00;;
68910;SDS011;55953;51.650;-0.522;2024-03-08T09:34:25;38.60;;;18.90;;
68910;SDS011;55953;51.650;-0.522;2024-03-08T09:37:04;36.30;;;18.40;;
68910;SDS011;55953;51.650;-0.522;2024-03-08T09:39:32;38.60;;;19.10;;
68910;SDS011;55953;51.650;-0.522;2024-03-08T09:42:01;37.50;;;19.10;;
68910;SDS011;55953;51.650;-0.522;2024-03-08T09:44:30;36.20;;;18.70;;
68910;SDS011;55953;51.650;-0.522;2024-03-08T09:46:58;37.10;;;17.90;;
68910;SDS011;55953;51.650;-0.522;2024-03-08T09:49:27;38.90;;;18.20;;
68910;SDS011;55953;51.650;-0.522;2024-03-08T09:51:56;36.90;;;19.30;;
68910;SDS011;55953;51.650;-0.522;2024-03-08T09:54:25;38.40;;;18.00;;
68910;SDS011;55953;51.650;-0.522;2024-03-08T09:56:54;39.00;;;19.60;;
68910;SDS011;55953;51.650;-0.522;2024-03-08T09:59:22;35.60;;;18.90;;
68910;SDS011;55953;51.650;-0.522;2024-03-08T10:01:50;35.20;;;18.20;;
68910;SDS011;55953;51.650;-0.522;2024-03-08T10:04:19;39.50;;;19.30;;
68910;SDS011;55953;51.650;-0.522;2024-03-08T10:06:48;34.40;;;18.50;;
68910;SDS011;55953;51.650;-0.522;2024-03-08T10:09:16;36.80;;;19.20;;
68910;SDS011;55953;51.650;-0.522;2024-03-08T10:11:45;34.60;;;19.00;;
68910;SDS011;55953;51.650;-0.522;2024-03-08T10:14:13;34.40;;;18.40;;
68910;SDS011;55953;51.650;-0.522;2024-03-08T10:16:44;34.00;;;18.20;;
68910;SDS011;55953;51.650;-0.522;2024-03-08T10:19:14;33.70;;;17.90;;
68910;SDS011;55953;51.650;-0.522;2024-03-08T10:21:50;36.90;;;18.50;;
68910;SDS011;55953;51.650;-0.522;2024-03-08T10:24:24;33.70;;;18.60;;
68910;SDS011;55953;51.650;-0.522;2024-03-08T10:26:58;33.20;;;18.10;;
68910;SDS011;55953;51.650;-0.522;2024-03-08T10:29:33;35.60;;;17.00;;
68910;SDS011;55953;51.650;-0.522;2024-03-08T10:32:01;36.70;;;18.80;;
68910;SDS011;55953;51.650;-0.522;2024-03-08T10:34:29;36.60;;;17.40;;
68910;SDS011;55953;51.650;-0.522;2024-03-08T10:37:03;32.70;;;17.30;;
68910;SDS011;55953;51.650;-0.522;2024-03-08T10:39:35;31.50;;;16.50;;
68910;SDS011;55953;51.650;-0.522;2024-03-08T10:42:09;30.70;;;16.10;;
68910;SDS011;55953;51.650;-0.522;2024-03-08T10:44:53;29.20;;;15.70;;
68910;SDS011;55953;51.650;-0.522;2024-03-08T10:47:46;28.90;;;14.80;;
68910;SDS011;55953;51.650;-0.522;2024-03-08T10:50:20;31.30;;;15.80;;
68910;SDS011;55953;51.650;-0.522;2024-03-08T10:52:50;30.00;;;15.90;;
68910;SDS011;55953;51.650;-0.522;2024-03-08T10:55:19;29.10;;;16.10;;
68910;SDS011;55953;51.650;-0.522;2024-03-08T10:57:50;31.20;;;16.20;;
68910;SDS011;55953;51.650;-0.522;2024-03-08T11:00:19;29.50;;;15.40;;
68910;SDS011;55953;51.650;-0.522;2024-03-08T11:02:54;28.30;;;16.80;;
68910;SDS011;55953;51.650;-0.522;2024-03-08T11:05:37;31.40;;;15.70;;
68910;SDS011;55953;51.650;-0.522;2024-03-08T11:10:52;32.40;;;16.30;;
68910;SDS011;55953;51.650;-0.522;2024-03-08T11:13:41;28.90;;;15.20;;
68910;SDS011;55953;51.650;-0.522;2024-03-08T11:16:12;31.70;;;15.50;;
68910;SDS011;55953;51.650;-0.522;2024-03-08T11:19:23;27.60;;;14.70;;
68910;SDS011;55953;51.650;-0.522;2024-03-08T11:21:59;26.80;;;15.00;;
68910;SDS011;55953;51.650;-0.522;2024-03-08T11:24:38;27.40;;;14.90;;
68910;SDS011;55953;51.650;-0.522;2024-03-08T11:27:09;26.80;;;14.20;;
68910;SDS011;55953;51.650;-0.522;2024-03-08T11:29:38;26.60;;;13.80;;
68910;SDS011;55953;51.650;-0.522;2024-03-08T11:32:15;25.60;;;14.50;;
68910;SDS011;55953;51.650;-0.522;2024-03-08T11:34:49;24.50;;;13.70;;
68910;SDS011;55953;51.650;-0.522;2024-03-08T11:37:19;23.60;;;14.00;;
68910;SDS011;55953;51.650;-0.522;2024-03-08T11:39:53;26.00;;;13.20;;
68910;SDS011;55953;51.650;-0.522;2024-03-08T11:42:26;26.00;;;14.10;;
68910;SDS011;55953;51.650;-0.522;2024-03-08T11:44:54;23.00;;;12.90;;
68910;SDS011;55953;51.650;-0.522;2024-03-08T11:47:22;22.70;;;13.10;;
68910;SDS011;55953;51.650;-0.522;2024-03-08T11:49:50;23.20;;;13.10;;
68910;SDS011;55953;51.650;-0.522;2024-03-08T11:52:20;25.30;;;12.70;;
68910;SDS011;55953;51.650;-0.522;2024-03-08T11:54:52;25.40;;;12.50;;
68910;SDS011;55953;51.650;-0.522;2024-03-08T11:57:27;21.50;;;12.20;;
68910;SDS011;55953;51.650;-0.522;2024-03-08T11:59:56;20.10;;;11.40;;
68910;SDS011;55953;51.650;-0.522;2024-03-08T12:02:46;22.30;;;11.50;;
68910;SDS011;55953;51.650;-0.522;2024-03-08T12:05:19;21.00;;;12.20;;
68910;SDS011;55953;51.650;-0.522;2024-03-08T12:07:56;20.90;;;11.50;;
68910;SDS011;55953;51.650;-0.522;2024-03-08T12:10:26;22.90;;;13.10;;
68910;SDS011;55953;51.650;-0.522;2024-03-08T12:12:57;21.70;;;12.30;;
68910;SDS011;55953;51.650;-0.522;2024-03-08T12:15:31;20.00;;;12.20;;
68910;SDS011;55953;51.650;-0.522;2024-03-08T12:18:01;23.70;;;12.90;;
68910;SDS011;55953;51.650;-0.522;2024-03-08T12:20:32;25.70;;;13.40;;
68910;SDS011;55953;51.650;-0.522;2024-03-08T12:23:02;26.10;;;14.30;;
68910;SDS011;55953;51.650;-0.522;2024-03-08T12:25:31;25.50;;;14.30;;
68910;SDS011;55953;51.650;-0.522;2024-03-08T12:28:13;24.80;;;14.00;;
68910;SDS011;55953;51.650;-0.522;2024-03-08T12:30:50;25.90;;;13.50;;
68910;SDS011;55953;51.650;-0.522;2024-03-08T12:33:20;22.50;;;12.70;;
68910;SDS011;55953;51.650;-0.522;2024-03-08T12:35:54;27.80;;;13.00;;
68910;SDS011;55953;51.650;-0.522;2024-03-08T12:38:27;20.60;;;12.00;;
68910;SDS011;55953;51.650;-0.522;2024-03-08T12:40:58;23.10;;;12.70;;
68910;SDS011;55953;51.650;-0.522;2024-03-08T12:43:27;21.70;;;12.50;;
68910;SDS011;55953;51.650;-0.522;2024-03-08T12:45:59;23.40;;;14.30;;
68910;SDS011;55953;51.650;-0.522;2024-03-08T12:48:27;24.00;;;13.40;;
68910;SDS011;55953;51.650;-0.522;2024-03-08T12:50:55;21.80;;;12.50;;
68910;SDS011;55953;51.650;-0.522;2024-03-08T12:53:23;22.70;;;13.10;;
68910;SDS011;55953;51.650;-0.522;2024-03-08T12:55:53;22.00;;;11.90;;
68910;SDS011;55953;51.650;-0.522;2024-03-08T12:58:24;22.60;;;12.40;;
68910;SDS011;55953;51.650;-0.522;2024-03-08T13:00:53;20.60;;;12.20;;
68910;SDS011;55953;51.650;-0.522;2024-03-08T13:03:22;27.70;;;13.40;;
68910;SDS011;55953;51.650;-0.522;2024-03-08T13:05:51;21.50;;;12.70;;
68910;SDS011;55953;51.650;-0.522;2024-03-08T13:08:19;20.80;;;11.70;;
68910;SDS011;55953;51.650;-0.522;2024-03-08T13:10:49;24.60;;;12.50;;
68910;SDS011;55953;51.650;-0.522;2024-03-08T13:13:18;23.20;;;13.20;;
68910;SDS011;55953;51.650;-0.522;2024-03-08T13:15:47;23.90;;;13.80;;
68910;SDS011;55953;51.650;-0.522;2024-03-08T13:18:16;22.90;;;13.90;;
68910;SDS011;55953;51.650;-0.522;2024-03-08T13:20:45;21.70;;;12.40;;
68910;SDS011;55953;51.650;-0.522;2024-03-08T13:23:17;22.50;;;13.00;;
68910;SDS011;55953;51.650;-0.522;2024-03-08T13:25:46;22.70;;;11.80;;
68910;SDS011;55953;51.650;-0.522;2024-03-08T13:30:50;20.60;;;11.20;;
68910;SDS011;55953;51.650;-0.522;2024-03-08T13:33:24;21.70;;;11.70;;
68910;SDS011;55953;51.650;-0.522;2024-03-08T13:35:53;21.70;;;12.20;;
68910;SDS011;55953;51.650;-0.522;2024-03-08T13:38:21;22.10;;;11.70;;
68910;SDS011;55953;51.650;-0.522;2024-03-08T13:40:49;23.80;;;13.70;;
68910;SDS011;55953;51.650;-0.522;2024-03-08T13:43:17;24.90;;;13.90;;
68910;SDS011;55953;51.650;-0.522;2024-03-08T13:45:45;25.20;;;13.60;;
68910;SDS011;55953;51.650;-0.522;2024-03-08T13:48:13;25.00;;;13.10;;
68910;SDS011;55953;51.650;-0.522;2024-03-08T13:50:41;24.20;;;13.60;;
68910;SDS011;55953;51.650;-0.522;2024-03-08T13:53:09;22.20;;;13.00;;
68910;SDS011;55953;51.650;-0.522;2024-03-08T13:55:38;22.20;;;13.00;;
68910;SDS011;55953;51.650;-0.522;2024-03-08T13:58:06;26.20;;;14.50;;
68910;SDS011;55953;51.650;-0.522;2024-03-08T14:00:37;24.90;;;13.60;;
68910;SDS011;55953;51.650;-0.522;2024-03-08T14:03:06;22.80;;;13.10;;
68910;SDS011;55953;51.650;-0.522;2024-03-08T14:05:34;23.30;;;13.20;;
68910;SDS011;55953;51.650;-0.522;2024-03-08T14:08:02;25.70;;;13.90;;
68910;SDS011;55953;51.650;-0.522;2024-03-08T14:10:31;24.60;;;13.70;;
68910;SDS011;55953;51.650;-0.522;2024-03-08T14:12:59;21.70;;;12.70;;
68910;SDS011;55953;51.650;-0.522;2024-03-08T14:15:28;22.80;;;13.80;;
68910;SDS011;55953;51.650;-0.522;2024-03-08T14:17:57;24.00;;;13.80;;
68910;SDS011;55953;51.650;-0.522;2024-03-08T14:20:25;24.00;;;13.70;;
68910;SDS011;55953;51.650;-0.522;2024-03-08T14:22:56;24.00;;;13.20;;
68910;SDS011;55953;51.650;-0.522;2024-03-08T14:27:53;23.00;;;13.20;;
68910;SDS011;55953;51.650;-0.522;2024-03-08T14:30:21;24.60;;;13.30;;
68910;SDS011;55953;51.650;-0.522;2024-03-08T14:33:09;21.80;;;12.10;;